Accueil
METAR-TAF:

METAR-TAF

Aéroports :

Bandirma, Turquie

latitude: 40-19N, longitude: 027-58E, altitude: 51 m

Observation

Le bulletin a été fait il y a 14 heures et 34 minutes, à 09:23 UTC
Vent 5 kt de sud/sud-est, variant entre est/sud-est et sud/sud-ouest
Température 6°C
Humidité 93%
Pression 1014 hPa
Visibilité: 6000 m

METAR: LTBG 100923Z 15005KT 110V210 6000 NSC 06/05 Q1014 NOSIG RMK RWY18 17007KT 140V210

Heure: 02:57 (23:57 UTC)

Prévision

Le bulletin a été fait il y a 1 heure et 17 minutes, à 22:40 UTC
Prévision valable du 11 à 00 UTC au 11 à 09 UTC
Vent 2 kt de direction variable
Visibilité 10 km ou plus
pas de nuages en-dessous de 1500 mètres et pas de cumulonimbus.
Evoluant progressivement
du 11 à 03 UTC au 11 à 06 UTC
Nuages épars à une hauteur de 3500 ft
Nuages fragmentés à une hauteur de 10000 ft

TAF: LTBG 102240Z 1100/1109 VRB02KT CAVOK BECMG 1103/1106 SCT035 BKN100

Observations et prévisions météorologiques de plus de 4000 aéroports (messages METAR et TAF).

Les stations disponibles sont représentées par des disques jaunes et rouges sur la carte.

Passer la souris dessus pour voir le nom de la station.

Cliquer dessus pour voir les observations et prévisions météorologiques.

Pour changer de carte: cliquez sur les boutons verts avec une croix noire pour zoomer, sur le bouton vert avec un tiret pour effectuer un zoom arrière, ou sur les flèches vertes pour les cartes adjacentes.


METAR-TAF: